Time;durP1;ratioP1;P1;durP2;ratioP2;P2;SDS_P1;SDS_P2;PMS_P1;PMS_P2;Temp;Humidity;BMP_temperature;BMP_pressure;BME280_temperature;BME280_humidity;BME280_pressure;Samples;Min_cycle;Max_cycle;Signal;HPM_P1;HPM_P2
2021/08/19 00:01:58;;;;;;;5.73;5.23;;;18.20;99.90;;;;;;6316346;22;20397;-84
2021/08/19 00:04:26;;;;;;;5.73;5.20;;;18.00;99.90;;;;;;6316459;22;20450;-84
2021/08/19 00:06:53;;;;;;;5.80;5.33;;;18.20;99.90;;;;;;6318266;22;20404;-84
2021/08/19 00:09:20;;;;;;;6.23;5.40;;;18.20;99.90;;;;;;6321401;22;20407;-83
2021/08/19 00:11:46;;;;;;;5.13;4.77;;;18.10;99.90;;;;;;6318286;22;20415;-82
2021/08/19 00:14:13;;;;;;;5.50;5.00;;;18.20;99.90;;;;;;6332256;22;20436;-83
2021/08/19 00:16:40;;;;;;;6.70;5.40;;;18.20;99.90;;;;;;6331644;22;20407;-83
2021/08/19 00:19:06;;;;;;;5.30;4.80;;;18.10;99.90;;;;;;6330629;22;20403;-83
2021/08/19 00:21:34;;;;;;;6.73;6.13;;;18.10;99.90;;;;;;6331229;22;20460;-83
2021/08/19 00:24:01;;;;;;;6.17;5.57;;;18.20;99.90;;;;;;6331647;22;20789;-83
2021/08/19 00:26:28;;;;;;;7.10;5.90;;;18.10;99.90;;;;;;6322418;22;20412;-84
2021/08/19 00:28:54;;;;;;;6.90;6.20;;;18.00;99.90;;;;;;6320872;22;20430;-85
2021/08/19 00:31:22;;;;;;;6.00;5.40;;;18.00;99.90;;;;;;6317224;22;20431;-83
2021/08/19 00:33:49;;;;;;;6.63;5.93;;;17.90;99.90;;;;;;6316316;22;20962;-84
2021/08/19 00:36:16;;;;;;;8.70;6.73;;;18.10;99.90;;;;;;6315838;22;20791;-84
2021/08/19 00:38:44;;;;;;;9.73;8.73;;;18.40;99.90;;;;;;6316400;22;20400;-82
2021/08/19 00:41:11;;;;;;;8.47;7.67;;;18.10;99.90;;;;;;6320636;22;20404;-83
2021/08/19 00:43:38;;;;;;;9.00;7.30;;;18.00;99.90;;;;;;6326598;22;20408;-83
2021/08/19 00:46:24;;;;;;;7.67;6.97;;;18.10;99.90;;;;;;6324415;22;20404;-84
2021/08/19 00:48:51;;;;;;;7.80;7.10;;;18.10;99.90;;;;;;6316450;22;20388;-83
2021/08/19 00:51:18;;;;;;;9.37;8.47;;;18.00;99.90;;;;;;6313399;22;20454;-83
2021/08/19 00:53:46;;;;;;;8.63;7.83;;;17.80;99.90;;;;;;6315977;22;20444;-82
2021/08/19 00:56:13;;;;;;;15.47;8.60;;;18.00;99.90;;;;;;6328037;22;20400;-82
2021/08/19 00:58:41;;;;;;;8.50;7.70;;;18.00;99.90;;;;;;6314948;22;20403;-83
2021/08/19 01:01:08;;;;;;;10.00;8.40;;;18.00;99.90;;;;;;6315179;22;20428;-83
2021/08/19 01:03:35;;;;;;;8.80;7.90;;;18.00;99.90;;;;;;6313971;22;20401;-83
2021/08/19 01:06:01;;;;;;;8.60;7.70;;;18.00;99.90;;;;;;6314091;22;20411;-83
2021/08/19 01:08:28;;;;;;;10.57;8.67;;;18.00;99.90;;;;;;6313464;22;20400;-83
2021/08/19 01:10:56;;;;;;;8.07;7.37;;;18.10;99.90;;;;;;6316270;22;20404;-84
2021/08/19 01:13:22;;;;;;;8.50;7.70;;;18.10;99.90;;;;;;6314953;22;20486;-83
2021/08/19 01:15:49;;;;;;;9.37;7.87;;;18.10;99.90;;;;;;6317470;22;20435;-84
2021/08/19 01:18:16;;;;;;;8.33;7.63;;;18.10;99.90;;;;;;6315317;22;20427;-82
2021/08/19 01:20:42;;;;;;;7.87;7.20;;;18.10;99.90;;;;;;6315736;22;20877;-83
2021/08/19 01:23:09;;;;;;;9.10;8.20;;;18.10;99.90;;;;;;6315129;22;20434;-83
2021/08/19 01:25:36;;;;;;;9.77;8.57;;;18.00;99.90;;;;;;6315402;22;20428;-83
2021/08/19 01:28:04;;;;;;;10.00;9.00;;;18.00;99.90;;;;;;6315957;22;20391;-83
2021/08/19 01:30:31;;;;;;;9.77;8.40;;;18.00;99.90;;;;;;6316880;22;20414;-83
2021/08/19 01:32:57;;;;;;;10.40;9.40;;;18.00;99.90;;;;;;6314290;22;20442;-83
2021/08/19 01:35:28;;;;;;;10.00;9.00;;;18.00;99.90;;;;;;6314826;22;20451;-83
2021/08/19 01:37:56;;;;;;;9.37;8.50;;;18.00;99.90;;;;;;6315375;22;20388;-83
2021/08/19 01:40:23;;;;;;;8.80;7.80;;;18.20;99.90;;;;;;6313583;22;20416;-82
2021/08/19 01:42:50;;;;;;;8.80;8.00;;;17.90;99.90;;;;;;6314236;22;20404;-83
2021/08/19 01:45:18;;;;;;;10.13;8.10;;;18.00;99.90;;;;;;6316943;22;20416;-83
2021/08/19 01:47:46;;;;;;;9.83;8.93;;;18.00;99.90;;;;;;6318755;22;20396;-83
2021/08/19 01:50:12;;;;;;;9.57;8.67;;;18.10;99.90;;;;;;6321516;22;20404;-82
2021/08/19 01:52:41;;;;;;;11.03;8.30;;;18.00;99.90;;;;;;6335725;22;20395;-83
2021/08/19 01:55:08;;;;;;;9.90;8.90;;;18.00;99.90;;;;;;6336792;22;20824;-83
2021/08/19 01:57:35;;;;;;;10.70;8.80;;;18.10;99.90;;;;;;6336360;22;20438;-82
2021/08/19 02:00:01;;;;;;;9.17;8.27;;;18.10;99.90;;;;;;6336048;22;20467;-84
2021/08/19 02:02:30;;;;;;;9.90;9.00;;;18.10;99.90;;;;;;6334473;22;20396;-83
2021/08/19 02:04:57;;;;;;;11.03;8.77;;;18.10;99.90;;;;;;6332579;22;20420;-83
2021/08/19 02:07:23;;;;;;;9.80;8.90;;;18.00;99.90;;;;;;6330364;22;20404;-82
2021/08/19 02:09:50;;;;;;;10.63;8.20;;;18.00;99.90;;;;;;6332043;22;20400;-82
2021/08/19 02:12:17;;;;;;;9.60;7.80;;;;;;;;;;6332883;22;20400;-82
2021/08/19 02:14:43;;;;;;;9.03;8.20;;;18.20;99.90;;;;;;6332971;22;20440;-81
2021/08/19 02:17:10;;;;;;;7.60;6.90;;;17.90;99.90;;;;;;6326281;22;20401;-82
2021/08/19 02:19:38;;;;;;;8.73;7.90;;;17.90;99.90;;;;;;6317478;22;20404;-83
2021/08/19 02:22:04;;;;;;;8.80;8.00;;;17.90;99.90;;;;;;6317650;22;20404;-82
2021/08/19 02:24:31;;;;;;;9.40;8.40;;;17.90;99.90;;;;;;6326766;22;20450;-83
2021/08/19 02:26:58;;;;;;;9.87;8.87;;;17.90;99.90;;;;;;6318470;22;20722;-83
2021/08/19 02:29:24;;;;;;;7.97;7.30;;;17.90;99.90;;;;;;6316103;22;20412;-83
2021/08/19 02:31:51;;;;;;;8.67;7.77;;;17.90;99.90;;;;;;6316935;22;20411;-82
2021/08/19 02:34:17;;;;;;;11.33;9.10;;;17.90;99.90;;;;;;6322191;22;20440;-83
2021/08/19 02:36:45;;;;;;;8.30;7.50;;;17.90;99.90;;;;;;6316220;22;20788;-83
2021/08/19 02:39:12;;;;;;;9.53;8.47;;;17.90;99.90;;;;;;6314957;22;20473;-83
2021/08/19 02:41:38;;;;;;;7.80;7.10;;;17.70;99.90;;;;;;6314605;22;20403;-83
2021/08/19 02:44:05;;;;;;;9.63;7.87;;;17.80;99.90;;;;;;6313979;22;20501;-83
2021/08/19 02:46:32;;;;;;;8.13;7.27;;;17.80;99.90;;;;;;6314746;22;20430;-83
2021/08/19 02:48:59;;;;;;;10.20;7.83;;;17.80;99.90;;;;;;6314371;22;20738;-83
2021/08/19 02:51:25;;;;;;;7.63;6.93;;;17.80;99.90;;;;;;6314601;22;20404;-83
2021/08/19 02:53:53;;;;;;;7.60;6.93;;;17.70;99.90;;;;;;6313296;22;20492;-83
2021/08/19 02:56:20;;;;;;;8.13;7.43;;;17.80;99.90;;;;;;6314433;22;20868;-83
2021/08/19 02:58:46;;;;;;;10.23;7.40;;;17.70;99.90;;;;;;6314612;22;20746;-83
2021/08/19 03:01:13;;;;;;;9.20;7.30;;;17.70;99.90;;;;;;6314701;22;20438;-83
2021/08/19 03:03:40;;;;;;;7.70;7.10;;;17.60;99.90;;;;;;6314466;22;20434;-83
2021/08/19 03:06:06;;;;;;;7.00;6.40;;;17.60;99.90;;;;;;6315548;22;20408;-83
2021/08/19 03:08:33;;;;;;;9.63;7.10;;;17.60;99.90;;;;;;6324634;22;20954;-83
2021/08/19 03:11:01;;;;;;;8.30;7.60;;;17.70;99.90;;;;;;6316575;22;20404;-84
2021/08/19 03:13:27;;;;;;;8.97;8.17;;;17.70;99.90;;;;;;6316730;22;20412;-83
2021/08/19 03:15:56;;;;;;;6.97;6.37;;;;;;;;;;6310154;22;20459;-80
2021/08/19 03:18:28;;;;;;;9.77;7.90;;;17.60;99.90;;;;;;6310654;22;20404;-80
2021/08/19 03:21:12;;;;;;;9.90;7.60;;;17.60;99.90;;;;;;6312352;22;20376;-81
2021/08/19 03:23:40;;;;;;;8.17;7.47;;;;;;;;;;6308571;22;20479;-80
2021/08/19 03:26:26;;;;;;;7.83;7.13;;;17.70;99.90;;;;;;6310576;22;20416;-80
2021/08/19 03:28:59;;;;;;;7.97;7.17;;;;;;;;;;6312320;22;20384;-80
2021/08/19 03:31:32;;;;;;;8.23;7.43;;;17.70;99.90;;;;;;6315062;22;20404;-80
2021/08/19 03:33:59;;;;;;;8.43;7.70;;;;;;;;;;6318164;22;20399;-80
2021/08/19 03:39:30;;;;;;;8.13;7.43;;;;;;;;;;6320093;22;20487;-80
2021/08/19 03:42:09;;;;;;;9.47;8.57;;;17.70;99.90;;;;;;6323218;22;20387;-80
2021/08/19 03:44:52;;;;;;;7.63;6.93;;;16.80;99.90;;;;;;6325019;22;20442;-80
2021/08/19 03:47:23;;;;;;;8.10;7.40;;;;;;;;;;6323259;22;20894;-80
2021/08/19 03:49:57;;;;;;;9.00;8.10;;;17.70;99.90;;;;;;6319312;22;20388;-80
2021/08/19 03:52:32;;;;;;;8.30;7.57;;;17.40;99.90;;;;;;6322581;22;20387;-80
2021/08/19 03:54:59;;;;;;;9.60;7.80;;;;;;;;;;6332976;22;20447;-80
2021/08/19 03:57:30;;;;;;;9.93;8.73;;;17.60;99.90;;;;;;6323852;22;20446;-81
2021/08/19 04:00:05;;;;;;;6.93;6.23;;;;;;;;;;6327498;22;20372;-80
2021/08/19 04:02:32;;;;;;;7.73;7.13;;;;;;;;;;6328462;22;20380;-80
2021/08/19 04:04:59;;;;;;;9.13;8.23;;;;;;;;;;6326044;22;20778;-80
2021/08/19 04:07:26;;;;;;;8.43;7.73;;;;;;;;;;6323791;22;20459;-80
2021/08/19 04:09:53;;;;;;;7.00;6.30;;;;;;;;;;6328404;22;20403;-79
2021/08/19 04:12:22;;;;;;;7.13;6.43;;;17.60;99.90;;;;;;6327849;22;20404;-80
2021/08/19 04:14:49;;;;;;;8.90;7.10;;;18.40;99.90;;;;;;6326047;22;20470;-80
2021/08/19 04:17:16;;;;;;;12.03;6.17;;;17.50;99.90;;;;;;6317177;22;20715;-80
2021/08/19 04:19:43;;;;;;;8.33;6.40;;;17.50;99.90;;;;;;6314211;22;20432;-80
2021/08/19 04:22:09;;;;;;;7.53;6.83;;;17.40;99.90;;;;;;6316926;22;20400;-80
2021/08/19 04:24:36;;;;;;;6.63;5.90;;;17.40;99.90;;;;;;6324418;22;20729;-80
2021/08/19 04:27:02;;;;;;;5.63;5.07;;;17.40;99.90;;;;;;6324085;22;20426;-80
2021/08/19 04:29:31;;;;;;;7.37;6.50;;;17.40;99.90;;;;;;6318855;22;20404;-80
2021/08/19 04:31:59;;;;;;;4.77;4.33;;;17.40;99.90;;;;;;6312574;22;20400;-80
2021/08/19 04:34:26;;;;;;;6.50;4.50;;;17.30;99.90;;;;;;6311891;22;20436;-81
2021/08/19 04:36:53;;;;;;;5.80;4.93;;;17.20;99.90;;;;;;6311853;22;20853;-80
2021/08/19 04:39:20;;;;;;;5.30;4.80;;;17.20;99.90;;;;;;6312709;22;20408;-81
2021/08/19 04:41:46;;;;;;;6.50;5.73;;;17.20;99.90;;;;;;6312678;22;20457;-81
2021/08/19 04:44:13;;;;;;;5.20;4.63;;;17.20;99.90;;;;;;6313013;22;20474;-80
2021/08/19 04:46:40;;;;;;;7.10;4.37;;;17.20;99.90;;;;;;6314509;22;20736;-80
2021/08/19 04:49:07;;;;;;;4.43;3.90;;;17.30;99.90;;;;;;6312718;22;20408;-80
2021/08/19 04:51:35;;;;;;;12.17;5.07;;;17.30;99.90;;;;;;6312719;22;20408;-81
2021/08/19 04:54:02;;;;;;;4.30;4.00;;;17.40;99.90;;;;;;6312877;22;20487;-80
2021/08/19 04:56:30;;;;;;;7.13;6.20;;;17.10;99.90;;;;;;6312760;22;20470;-80
2021/08/19 04:58:57;;;;;;;25.17;16.77;;;17.00;99.90;;;;;;6312411;22;20495;-81
2021/08/19 05:01:23;;;;;;;26.93;21.23;;;17.10;99.90;;;;;;6312118;22;20458;-80
2021/08/19 05:03:50;;;;;;;24.47;16.23;;;16.90;99.90;;;;;;6312581;22;20454;-80
2021/08/19 05:06:18;;;;;;;16.73;14.90;;;16.90;99.90;;;;;;6320150;22;20411;-80
2021/08/19 05:08:45;;;;;;;10.80;9.70;;;16.80;99.90;;;;;;6326782;22;20401;-80
2021/08/19 05:11:12;;;;;;;8.43;7.57;;;16.80;99.90;;;;;;6328422;22;20416;-80
2021/08/19 05:13:39;;;;;;;8.93;8.03;;;16.90;99.90;;;;;;6323140;22;20717;-80
2021/08/19 05:16:06;;;;;;;8.90;7.63;;;17.00;99.90;;;;;;6314596;22;20451;-80
2021/08/19 05:18:32;;;;;;;7.30;6.67;;;17.00;99.90;;;;;;6313935;22;20748;-80
2021/08/19 05:20:59;;;;;;;7.80;6.93;;;16.90;99.90;;;;;;6313206;22;20896;-80
2021/08/19 05:23:26;;;;;;;14.53;10.17;;;16.80;99.90;;;;;;6323266;22;20400;-80
2021/08/19 05:25:53;;;;;;;20.40;14.63;;;16.90;99.90;;;;;;6327473;22;20435;-79
2021/08/19 05:28:20;;;;;;;21.10;17.37;;;16.80;99.90;;;;;;6326510;22;20431;-79
2021/08/19 05:30:46;;;;;;;22.33;18.33;;;16.80;99.90;;;;;;6327416;22;20404;-79
2021/08/19 05:33:13;;;;;;;22.60;17.63;;;16.90;99.90;;;;;;6327872;22;20411;-80
2021/08/19 05:35:39;;;;;;;16.67;15.00;;;17.10;99.90;;;;;;6329287;22;20451;-80
2021/08/19 05:38:06;;;;;;;13.43;9.23;;;17.00;99.90;;;;;;6328717;22;20400;-80
2021/08/19 05:40:34;;;;;;;12.73;10.50;;;16.90;99.90;;;;;;6328232;22;20419;-80
2021/08/19 05:43:01;;;;;;;8.80;7.90;;;17.00;99.90;;;;;;6322279;22;20404;-81
2021/08/19 05:45:29;;;;;;;8.70;7.80;;;16.90;99.90;;;;;;6313215;22;20514;-81
2021/08/19 05:47:56;;;;;;;9.83;8.50;;;17.30;99.90;;;;;;6312871;22;20408;-81
2021/08/19 05:50:22;;;;;;;8.30;7.60;;;17.00;99.90;;;;;;6311748;22;20400;-80
2021/08/19 05:52:49;;;;;;;7.87;7.07;;;17.00;99.90;;;;;;6324580;22;20389;-80
2021/08/19 05:55:15;;;;;;;12.73;11.00;;;17.00;99.90;;;;;;6331637;22;20440;-82
2021/08/19 05:57:44;;;;;;;14.97;13.37;;;17.00;99.90;;;;;;6333226;22;20408;-81
2021/08/19 06:00:11;;;;;;;15.50;11.90;;;17.10;99.90;;;;;;6315126;22;20904;-80
2021/08/19 06:02:38;;;;;;;14.90;13.40;;;17.10;99.90;;;;;;6309972;22;20470;-80
2021/08/19 06:05:05;;;;;;;15.67;14.00;;;17.10;99.90;;;;;;6309747;22;20473;-79
2021/08/19 06:07:32;;;;;;;11.03;9.93;;;17.10;99.90;;;;;;6310073;22;20465;-80
2021/08/19 06:09:58;;;;;;;11.83;10.63;;;17.10;99.90;;;;;;6309964;22;20923;-79
2021/08/19 06:12:25;;;;;;;8.23;7.27;;;17.10;99.90;;;;;;6310006;22;20404;-79
2021/08/19 06:14:53;;;;;;;7.47;6.53;;;17.10;99.90;;;;;;6312602;22;20460;-79
2021/08/19 06:17:19;;;;;;;8.23;6.93;;;17.10;99.90;;;;;;6314697;22;20408;-79
2021/08/19 06:19:46;;;;;;;9.43;7.03;;;17.10;99.90;;;;;;6314876;22;20477;-79
2021/08/19 06:22:13;;;;;;;6.57;5.87;;;17.10;99.90;;;;;;6312716;22;20901;-80
2021/08/19 06:24:39;;;;;;;7.43;6.70;;;17.10;99.90;;;;;;6310214;22;20416;-81
2021/08/19 06:27:06;;;;;;;10.20;7.00;;;17.20;99.90;;;;;;6310010;22;20404;-79
2021/08/19 06:29:32;;;;;;;7.47;6.67;;;17.20;99.90;;;;;;6309582;22;20405;-80
2021/08/19 06:32:00;;;;;;;8.23;5.77;;;17.30;99.90;;;;;;6309960;22;20687;-79
2021/08/19 06:34:28;;;;;;;7.40;6.27;;;17.30;99.90;;;;;;6309987;22;20474;-79
2021/08/19 06:36:55;;;;;;;8.17;6.87;;;17.30;99.90;;;;;;6309629;22;20439;-79
2021/08/19 06:39:21;;;;;;;8.00;7.20;;;17.40;99.90;;;;;;6309302;22;20436;-79
2021/08/19 06:41:48;;;;;;;7.13;6.00;;;17.30;99.90;;;;;;6309312;22;20400;-79
2021/08/19 06:44:14;;;;;;;11.87;6.60;;;17.30;99.90;;;;;;6309288;22;20477;-80
2021/08/19 06:46:41;;;;;;;8.40;7.50;;;17.40;99.90;;;;;;6309934;22;20400;-80
2021/08/19 06:49:09;;;;;;;7.07;6.37;;;17.50;99.90;;;;;;6311249;22;20404;-78
2021/08/19 06:51:35;;;;;;;8.23;6.60;;;17.40;99.90;;;;;;6310802;22;20403;-78
2021/08/19 06:54:03;;;;;;;8.87;6.80;;;17.10;99.90;;;;;;6310816;22;20404;-79
2021/08/19 06:56:30;;;;;;;6.90;6.20;;;17.50;99.90;;;;;;6310928;22;20451;-80
2021/08/19 06:58:57;;;;;;;7.20;6.50;;;17.50;99.90;;;;;;6311607;22;20404;-79
2021/08/19 07:01:24;;;;;;;7.70;6.93;;;17.50;99.90;;;;;;6311034;22;20400;-80
2021/08/19 07:03:50;;;;;;;9.07;5.67;;;17.30;99.90;;;;;;6310174;22;20400;-80
2021/08/19 07:06:18;;;;;;;6.10;5.50;;;17.60;99.90;;;;;;6309304;22;20958;-79
2021/08/19 07:08:45;;;;;;;8.63;6.70;;;17.70;99.90;;;;;;6310747;22;20400;-80
2021/08/19 07:11:13;;;;;;;8.33;6.30;;;17.70;99.90;;;;;;6309219;22;20408;-80
2021/08/19 07:13:39;;;;;;;8.53;7.47;;;17.60;99.90;;;;;;6309178;22;20900;-80
2021/08/19 07:16:06;;;;;;;9.63;6.40;;;17.60;99.90;;;;;;6309327;22;20448;-80
2021/08/19 07:18:33;;;;;;;7.30;6.57;;;17.60;99.90;;;;;;6309986;22;20408;-80
2021/08/19 07:21:00;;;;;;;7.40;6.70;;;17.60;99.90;;;;;;6310271;22;20797;-80
2021/08/19 07:23:27;;;;;;;11.17;6.90;;;17.60;99.90;;;;;;6310567;22;20732;-80
2021/08/19 07:25:55;;;;;;;7.70;6.63;;;17.50;99.90;;;;;;6311968;22;20473;-80
2021/08/19 07:28:22;;;;;;;8.77;7.20;;;17.50;99.90;;;;;;6310038;22;20408;-79
2021/08/19 07:30:49;;;;;;;6.23;5.63;;;17.50;99.90;;;;;;6309301;22;20725;-81
2021/08/19 07:33:17;;;;;;;7.30;5.83;;;17.60;99.90;;;;;;6312268;22;20401;-80
2021/08/19 07:35:45;;;;;;;9.23;6.90;;;17.60;99.90;;;;;;6309042;22;20530;-80
2021/08/19 07:38:15;;;;;;;7.53;6.73;;;17.70;99.90;;;;;;6309589;22;20765;-80
2021/08/19 07:40:43;;;;;;;7.13;6.53;;;17.80;99.90;;;;;;6309533;22;20408;-80
2021/08/19 07:43:09;;;;;;;7.93;6.80;;;17.70;99.90;;;;;;6310925;22;20400;-80
2021/08/19 07:45:36;;;;;;;8.20;7.20;;;17.70;99.90;;;;;;6310289;22;20420;-80
2021/08/19 07:48:10;;;;;;;9.13;6.43;;;17.70;99.90;;;;;;6309893;22;20401;-80
2021/08/19 07:50:37;;;;;;;8.43;6.47;;;17.70;99.90;;;;;;6315113;22;20384;-79
2021/08/19 07:53:04;;;;;;;6.83;6.03;;;17.60;99.90;;;;;;6323249;22;20881;-80
2021/08/19 07:55:31;;;;;;;7.23;5.63;;;17.70;99.90;;;;;;6320837;22;20781;-78
2021/08/19 07:58:00;;;;;;;9.20;6.47;;;17.70;99.90;;;;;;6315977;22;20400;-79
2021/08/19 08:00:28;;;;;;;6.67;6.07;;;17.80;99.90;;;;;;6322343;22;20752;-80
2021/08/19 08:02:56;;;;;;;7.23;6.60;;;17.90;99.90;;;;;;6317762;22;20746;-79
2021/08/19 08:05:24;;;;;;;8.23;6.27;;;17.80;99.90;;;;;;6310077;22;20458;-80
2021/08/19 08:07:52;;;;;;;7.10;6.40;;;17.80;99.90;;;;;;6310324;22;20410;-80
2021/08/19 08:10:19;;;;;;;5.83;5.33;;;17.80;99.90;;;;;;6309179;22;20404;-79
2021/08/19 08:12:45;;;;;;;7.47;6.40;;;17.90;99.90;;;;;;6309884;22;20404;-80
2021/08/19 08:15:13;;;;;;;7.60;5.30;;;17.90;99.90;;;;;;6310198;22;20485;-78
2021/08/19 08:17:40;;;;;;;5.90;5.30;;;18.10;99.90;;;;;;6315372;22;20424;-79
2021/08/19 08:20:10;;;;;;;7.63;5.10;;;18.10;99.90;;;;;;6316769;22;20483;-79
2021/08/19 08:22:37;;;;;;;7.43;5.67;;;18.10;99.90;;;;;;6313272;22;20923;-80
2021/08/19 08:25:05;;;;;;;9.40;6.80;;;18.10;99.90;;;;;;6311634;22;20436;-79
2021/08/19 08:27:32;;;;;;;7.33;6.00;;;18.20;99.90;;;;;;6311040;22;20404;-79
2021/08/19 08:29:58;;;;;;;6.83;5.90;;;18.10;99.90;;;;;;6313549;22;20404;-80
2021/08/19 08:32:28;;;;;;;8.50;5.63;;;18.10;99.90;;;;;;6312377;22;20408;-79
2021/08/19 08:34:56;;;;;;;9.10;5.60;;;18.00;99.90;;;;;;6316010;22;20427;-80
2021/08/19 08:37:24;;;;;;;7.63;6.60;;;18.10;99.90;;;;;;6318509;22;20448;-80
2021/08/19 08:39:50;;;;;;;11.23;6.33;;;18.20;99.90;;;;;;6320343;22;20473;-80
2021/08/19 08:42:17;;;;;;;7.30;5.67;;;18.30;99.90;;;;;;6314081;22;20446;-79
2021/08/19 08:44:44;;;;;;;9.97;5.43;;;18.20;99.90;;;;;;6313324;22;20432;-79
2021/08/19 08:47:14;;;;;;;6.10;5.50;;;18.20;99.90;;;;;;6311574;22;20461;-81
2021/08/19 08:49:42;;;;;;;7.80;6.20;;;18.30;99.90;;;;;;6310304;22;20430;-79
2021/08/19 08:52:09;;;;;;;8.20;6.27;;;18.30;99.90;;;;;;6311416;22;20404;-79
2021/08/19 08:54:35;;;;;;;5.97;5.37;;;18.30;99.90;;;;;;6312286;22;20421;-80
2021/08/19 08:57:02;;;;;;;6.13;5.53;;;18.30;99.90;;;;;;6311931;22;20428;-80
2021/08/19 08:59:29;;;;;;;9.63;6.43;;;18.30;99.90;;;;;;6312822;22;20415;-79
2021/08/19 09:01:56;;;;;;;10.97;5.70;;;18.30;99.90;;;;;;6311453;22;20404;-80
2021/08/19 09:04:23;;;;;;;8.00;5.57;;;18.30;99.90;;;;;;6310991;22;20511;-80
2021/08/19 09:06:51;;;;;;;8.43;6.90;;;18.30;99.90;;;;;;6310979;22;20404;-80
2021/08/19 09:09:19;;;;;;;7.73;5.73;;;18.40;99.90;;;;;;6315418;22;20561;-79
2021/08/19 09:11:53;;;;;;;6.57;5.90;;;18.50;99.90;;;;;;6311473;22;20491;-80
2021/08/19 09:18:15;;;;;;;6.37;5.83;;;18.60;99.90;;;;;;6265969;22;20444;-82
2021/08/19 09:21:05;;;;;;;9.10;5.83;;;18.70;99.90;;;;;;6226077;22;20405;-82
2021/08/19 09:40:50;;;;;;;9.77;6.63;;;19.00;99.90;;;;;;6051674;23;20420;-81
2021/08/19 09:44:00;;;;;;;7.13;6.43;;;18.80;99.90;;;;;;6254822;23;20452;-80
2021/08/19 10:09:12;;;;;;;9.00;5.40;;;18.90;99.90;;;;;;6187343;23;20402;-79
2021/08/19 10:12:02;;;;;;;6.10;5.50;;;18.90;99.90;;;;;;6265756;23;20463;-79
2021/08/19 10:15:18;;;;;;;7.57;5.47;;;19.00;99.90;;;;;;6264172;22;20486;-81
2021/08/19 10:18:40;;;;;;;6.20;5.43;;;19.00;99.90;;;;;;6258731;23;20852;-79
2021/08/19 10:21:10;;;;;;;8.40;5.03;;;19.40;99.90;;;;;;6251653;23;20536;-80
2021/08/19 10:23:41;;;;;;;7.80;5.20;;;19.00;99.90;;;;;;6252011;23;20467;-82
2021/08/19 10:26:10;;;;;;;8.23;5.43;;;19.00;99.90;;;;;;6251805;22;20425;-81
2021/08/19 10:28:51;;;;;;;5.70;5.20;;;19.10;99.90;;;;;;6251269;23;20723;-83
2021/08/19 10:31:43;;;;;;;7.57;6.00;;;19.30;99.90;;;;;;6252646;23;20445;-82
2021/08/19 10:34:10;;;;;;;6.13;5.53;;;19.20;99.90;;;;;;6254149;23;20390;-83
2021/08/19 10:36:54;;;;;;;6.83;5.57;;;19.30;99.90;;;;;;6252719;23;20449;-83
2021/08/19 10:39:37;;;;;;;6.50;5.80;;;19.80;99.90;;;;;;6255011;23;20386;-84
2021/08/19 10:42:08;;;;;;;6.73;5.70;;;19.50;99.90;;;;;;6256551;23;20386;-82
2021/08/19 10:44:38;;;;;;;7.03;6.33;;;19.50;99.90;;;;;;6264899;22;20468;-83
2021/08/19 10:47:06;;;;;;;18.43;7.10;;;19.40;99.90;;;;;;6264381;23;20424;-81
2021/08/19 10:49:38;;;;;;;7.13;6.00;;;19.50;99.90;;;;;;6267593;23;20477;-83
2021/08/19 10:52:31;;;;;;;7.07;6.00;;;19.20;99.90;;;;;;6255231;23;20895;-81
2021/08/19 10:55:12;;;;;;;7.40;5.40;;;19.50;99.90;;;;;;6256425;22;20440;-80
2021/08/19 10:57:55;;;;;;;10.17;5.50;;;19.40;99.90;;;;;;6254342;23;20736;-81
2021/08/19 11:00:42;;;;;;;6.10;5.60;;;19.40;99.90;;;;;;6253389;23;20393;-80
2021/08/19 11:03:40;;;;;;;8.40;5.83;;;19.40;99.90;;;;;;6252311;23;20455;-80
2021/08/19 11:06:07;;;;;;;6.90;5.50;;;19.40;99.90;;;;;;6250870;22;20734;-81
2021/08/19 11:08:46;;;;;;;6.60;5.50;;;19.60;99.90;;;;;;6249898;23;20410;-81
2021/08/19 11:11:15;;;;;;;9.13;6.13;;;19.60;99.90;;;;;;6249750;23;20459;-82
2021/08/19 11:13:42;;;;;;;6.50;5.60;;;19.40;99.90;;;;;;6250237;23;20429;-81
2021/08/19 11:16:14;;;;;;;7.70;6.03;;;19.50;99.90;;;;;;6249536;22;20426;-82
2021/08/19 11:18:44;;;;;;;5.30;4.90;;;19.40;99.90;;;;;;6248846;23;20440;-81
2021/08/19 11:21:11;;;;;;;8.23;6.63;;;19.70;99.90;;;;;;6248897;23;20406;-82
2021/08/19 11:23:42;;;;;;;6.40;4.80;;;19.70;99.90;;;;;;6249456;23;20432;-82
2021/08/19 11:33:10;;;;;;;7.83;4.77;;;19.80;99.90;;;;;;6271885;22;20389;-82
2021/08/19 11:35:37;;;;;;;10.77;5.87;;;;;;;;;;6311468;22;20428;-81
2021/08/19 11:39:38;;;;;;;6.03;5.20;;;19.90;99.90;;;;;;5035216;27;3600371;-80
2021/08/19 11:42:06;;;;;;;4.73;4.37;;;19.50;99.90;;;;;;5148023;28;20559;-80
2021/08/19 11:44:33;;;;;;;7.30;5.40;;;20.00;99.90;;;;;;5138077;28;20498;-78
2021/08/19 11:47:02;;;;;;;4.70;4.30;;;20.30;99.90;;;;;;5134171;28;20446;-78
2021/08/19 11:49:28;;;;;;;11.33;5.20;;;20.00;99.90;;;;;;5116328;28;20439;-78
2021/08/19 11:52:04;;;;;;;8.00;5.00;;;19.90;99.90;;;;;;5116348;28;20443;-78
2021/08/19 11:54:40;;;;;;;9.90;5.70;;;19.90;99.90;;;;;;5116949;28;20440;-77
2021/08/19 11:57:07;;;;;;;5.80;5.20;;;20.10;99.90;;;;;;5118497;28;20463;-79
2021/08/19 11:59:34;;;;;;;6.80;5.40;;;20.20;99.90;;;;;;5117774;28;20468;-78
2021/08/19 12:02:00;;;;;;;5.60;4.70;;;20.10;99.90;;;;;;5118792;28;20448;-80
2021/08/19 12:04:29;;;;;;;6.33;5.73;;;20.20;99.90;;;;;;5117452;28;20520;-78
2021/08/19 12:06:56;;;;;;;10.53;5.77;;;19.70;99.90;;;;;;5117379;28;20440;-79
2021/08/19 12:09:23;;;;;;;6.63;5.47;;;20.10;99.90;;;;;;5118417;28;20946;-81
2021/08/19 12:11:51;;;;;;;6.00;5.20;;;20.10;99.90;;;;;;5118433;28;20497;-80
2021/08/19 12:14:24;;;;;;;7.60;5.80;;;20.10;99.90;;;;;;5121495;28;20506;-79
2021/08/19 12:16:52;;;;;;;7.17;5.90;;;19.60;99.90;;;;;;5121054;28;20433;-79
2021/08/19 12:19:20;;;;;;;6.77;5.90;;;20.10;99.90;;;;;;5122752;28;20472;-79
2021/08/19 12:21:57;;;;;;;5.30;4.80;;;20.00;99.90;;;;;;5123322;28;20448;-78
2021/08/19 12:24:26;;;;;;;9.73;5.47;;;20.00;99.90;;;;;;5115418;28;20451;-79
2021/08/19 12:27:03;;;;;;;5.40;4.87;;;19.90;99.90;;;;;;5113266;28;20444;-79
2021/08/19 12:29:31;;;;;;;10.83;7.00;;;20.10;99.90;;;;;;5113968;28;20435;-79
2021/08/19 12:32:00;;;;;;;6.43;5.07;;;20.10;99.90;;;;;;5113403;28;20506;-80
2021/08/19 12:34:28;;;;;;;5.77;5.00;;;20.20;99.90;;;;;;5113252;28;20451;-79
2021/08/19 12:37:06;;;;;;;6.20;4.73;;;20.70;99.90;;;;;;5113885;28;20447;-79
2021/08/19 12:39:35;;;;;;;5.53;4.70;;;20.30;99.90;;;;;;5113184;28;21004;-79
2021/08/19 12:42:09;;;;;;;6.67;5.13;;;20.20;99.90;;;;;;5112893;28;20448;-80
2021/08/19 12:44:36;;;;;;;5.17;4.77;;;20.30;99.90;;;;;;5113444;28;20428;-79
2021/08/19 12:47:03;;;;;;;7.70;5.10;;;20.40;99.90;;;;;;5113263;28;20479;-79
2021/08/19 12:49:32;;;;;;;6.00;4.60;;;20.60;99.90;;;;;;5106931;28;20440;-79
2021/08/19 12:52:22;;;;;;;5.03;4.43;;;20.70;99.90;;;;;;5099446;28;20440;-80
2021/08/19 12:54:57;;;;;;;5.30;4.80;;;20.80;99.90;;;;;;5099422;28;20425;-79
2021/08/19 12:57:33;;;;;;;4.97;4.47;;;20.70;99.90;;;;;;5099937;28;20463;-79
2021/08/19 13:00:00;;;;;;;6.23;4.40;;;20.70;99.90;;;;;;5098437;28;21003;-80
2021/08/19 13:02:28;;;;;;;8.33;4.00;;;20.80;99.90;;;;;;5098801;28;20471;-80
2021/08/19 13:04:56;;;;;;;5.17;4.47;;;20.90;99.90;;;;;;5099535;28;20956;-80
2021/08/19 13:07:23;;;;;;;4.20;3.80;;;20.80;99.90;;;;;;5099567;28;20472;-79
2021/08/19 13:09:49;;;;;;;4.10;3.80;;;20.90;99.90;;;;;;5100282;28;20475;-80
2021/08/19 13:12:16;;;;;;;5.20;4.10;;;21.00;99.90;;;;;;5099651;28;20448;-80
2021/08/19 13:14:44;;;;;;;5.20;4.53;;;21.10;99.90;;;;;;5101310;28;20436;-79
2021/08/19 13:17:11;;;;;;;4.50;4.10;;;21.20;99.90;;;;;;5098774;28;20460;-80
2021/08/19 13:19:37;;;;;;;5.63;4.97;;;21.00;99.90;;;;;;5099192;28;20591;-80
2021/08/19 13:22:04;;;;;;;6.03;3.70;;;21.10;99.90;;;;;;5098940;28;20440;-80
2021/08/19 13:24:31;;;;;;;8.40;4.07;;;21.10;99.90;;;;;;5100727;28;20444;-80
2021/08/19 13:26:58;;;;;;;5.93;4.00;;;21.40;99.90;;;;;;5099174;28;20457;-80
2021/08/19 13:29:24;;;;;;;6.37;4.57;;;21.20;99.90;;;;;;5098787;28;20444;-80
2021/08/19 13:31:52;;;;;;;5.40;3.90;;;21.20;99.90;;;;;;5099053;28;20995;-80
2021/08/19 13:34:19;;;;;;;7.03;5.57;;;21.40;99.90;;;;;;5106218;28;20445;-79
2021/08/19 13:36:45;;;;;;;7.40;4.57;;;21.40;99.90;;;;;;5098788;28;20487;-80
2021/08/19 13:39:12;;;;;;;5.10;4.23;;;21.40;99.90;;;;;;5098123;28;20536;-80
2021/08/19 13:41:38;;;;;;;5.50;4.17;;;21.50;99.90;;;;;;5098882;28;20566;-80
2021/08/19 13:44:05;;;;;;;8.23;4.10;;;21.50;99.90;;;;;;5098861;28;20476;-79
2021/08/19 13:46:32;;;;;;;3.77;3.33;;;21.50;99.90;;;;;;5098483;28;20441;-79
2021/08/19 13:49:00;;;;;;;4.27;3.87;;;21.50;99.90;;;;;;5098812;28;20491;-79
2021/08/19 13:51:27;;;;;;;6.73;4.33;;;22.00;99.90;;;;;;5101896;28;20449;-79
2021/08/19 13:53:53;;;;;;;3.70;3.40;;;21.70;99.90;;;;;;5106042;28;20452;-80
2021/08/19 13:56:20;;;;;;;7.63;4.27;;;21.70;99.90;;;;;;5105880;28;20445;-80